Time;durP1;ratioP1;P1;durP2;ratioP2;P2;SDS_P1;SDS_P2;PMS_P1;PMS_P2;Temp;Humidity;BMP_temperature;BMP_pressure;BME280_temperature;BME280_humidity;BME280_pressure;Samples;Min_cycle;Max_cycle;Signal;HPM_P1;HPM_P2
2023/08/12 00:00:41;;;;;;;2.20;1.60;;;;;;;19.77;100.00;95184.22;5054666;28;20033;-82
2023/08/12 00:03:06;;;;;;;2.63;1.70;;;;;;;19.53;100.00;95190.69;5054560;28;20033;-82
2023/08/12 00:05:32;;;;;;;3.40;1.48;;;;;;;19.48;100.00;95180.16;5054661;28;20028;-82
2023/08/12 00:07:57;;;;;;;2.00;1.27;;;;;;;19.50;100.00;95176.13;5056020;28;20039;-82
2023/08/12 00:10:22;;;;;;;3.10;1.38;;;;;;;19.56;100.00;95178.66;5054343;28;20457;-82
2023/08/12 00:12:48;;;;;;;5.45;1.48;;;;;;;19.49;100.00;95177.22;5054738;28;20037;-82
2023/08/12 00:15:13;;;;;;;1.42;1.23;;;;;;;19.48;100.00;95173.00;5055988;28;20041;-82
2023/08/12 00:17:41;;;;;;;2.60;1.52;;;;;;;19.47;100.00;95170.63;5055769;28;20033;-82
2023/08/12 00:20:08;;;;;;;3.75;1.50;;;;;;;19.36;100.00;95178.84;5054605;28;20037;-82
2023/08/12 00:22:34;;;;;;;4.13;1.63;;;;;;;19.39;100.00;95180.13;5054565;28;20645;-82
2023/08/12 00:24:59;;;;;;;4.88;1.67;;;;;;;19.35;100.00;95169.31;5054045;28;20135;-82
2023/08/12 00:27:25;;;;;;;2.35;1.40;;;;;;;19.36;100.00;95170.09;5054120;28;20040;-82
2023/08/12 00:29:50;;;;;;;2.13;1.50;;;;;;;19.45;100.00;95173.63;5054057;28;20044;-82
2023/08/12 00:32:15;;;;;;;1.63;1.38;;;;;;;19.40;100.00;95171.06;5054171;28;20025;-82
2023/08/12 00:34:41;;;;;;;1.83;1.23;;;;;;;19.45;100.00;95176.28;5054138;28;20091;-82
2023/08/12 00:37:06;;;;;;;2.58;1.33;;;;;;;19.42;100.00;95171.53;5033968;28;20466;-82
2023/08/12 00:39:32;;;;;;;1.90;1.27;;;;;;;19.42;100.00;95173.44;5033135;28;20041;-83
2023/08/12 00:41:57;;;;;;;4.78;1.50;;;;;;;19.34;100.00;95165.09;5017589;28;20021;-82
2023/08/12 00:44:22;;;;;;;1.65;1.20;;;;;;;19.39;100.00;95166.84;5046231;28;20389;-82
2023/08/12 00:46:48;;;;;;;2.70;1.08;;;;;;;19.19;100.00;95168.13;5052401;28;20032;-82
2023/08/12 00:49:15;;;;;;;2.10;1.42;;;;;;;19.17;100.00;95165.78;5053590;28;20088;-82
2023/08/12 00:51:41;;;;;;;3.38;1.67;;;;;;;19.06;100.00;95167.09;5052723;28;20071;-82
2023/08/12 00:54:08;;;;;;;1.98;1.42;;;;;;;18.83;100.00;95155.66;5041254;28;20029;-82
2023/08/12 00:56:34;;;;;;;2.13;1.23;;;;;;;18.97;100.00;95159.03;5051725;28;20052;-82
2023/08/12 00:59:00;;;;;;;4.90;1.60;;;;;;;18.91;100.00;95155.72;5036768;28;20342;-82
2023/08/12 01:01:25;;;;;;;3.40;1.55;;;;;;;18.89;100.00;95159.75;5053482;28;20041;-83
2023/08/12 01:03:52;;;;;;;5.43;1.75;;;;;;;18.48;100.00;95150.84;5053439;28;20053;-83
2023/08/12 01:06:17;;;;;;;2.17;1.30;;;;;;;18.32;100.00;95145.84;5054082;28;20036;-82
2023/08/12 01:08:42;;;;;;;2.65;1.50;;;;;;;18.23;100.00;95145.78;5052992;28;20033;-83
2023/08/12 01:11:46;;;;;;;4.93;1.60;;;;;;;18.16;100.00;95141.94;5053170;28;20037;-82
2023/08/12 01:15:02;;;;;;;3.47;1.60;;;;;;;18.22;100.00;95138.91;5053518;28;20438;-83
2023/08/12 01:17:28;;;;;;;4.25;1.70;;;;;;;18.29;100.00;95135.03;5050316;28;20127;-82
2023/08/12 01:19:54;;;;;;;1.90;1.35;;;;;;;18.32;100.00;95131.78;5053348;28;20048;-83
2023/08/12 01:22:21;;;;;;;2.75;1.60;;;;;;;18.45;100.00;95132.88;5054463;28;20033;-82
2023/08/12 01:24:46;;;;;;;1.90;1.50;;;;;;;18.53;100.00;95134.78;5053510;28;20064;-82
2023/08/12 01:27:13;;;;;;;4.13;1.50;;;;;;;18.52;100.00;95130.56;5054329;28;20529;-82
2023/08/12 01:29:41;;;;;;;3.10;1.38;;;;;;;18.51;100.00;95129.00;5036799;28;20060;-83
2023/08/12 01:32:24;;;;;;;2.33;1.50;;;;;;;18.58;100.00;95124.09;5054639;28;20065;-82
2023/08/12 01:34:52;;;;;;;4.25;1.65;;;;;;;18.74;100.00;95129.81;5053370;28;20033;-83
2023/08/12 01:37:24;;;;;;;5.05;1.60;;;;;;;18.89;100.00;95134.00;5053881;28;20040;-82
2023/08/12 01:39:50;;;;;;;2.40;1.50;;;;;;;19.12;100.00;95127.94;5054076;28;20040;-82
2023/08/12 01:42:19;;;;;;;2.30;1.50;;;;;;;19.30;100.00;95126.16;5052971;28;20419;-82
2023/08/12 01:44:44;;;;;;;4.65;1.73;;;;;;;19.28;100.00;95130.97;5053314;28;20040;-82
2023/08/12 01:47:09;;;;;;;2.03;1.40;;;;;;;19.30;100.00;95134.91;5053032;28;20531;-82
2023/08/12 01:49:35;;;;;;;9.05;1.48;;;;;;;19.32;100.00;95122.09;5054421;28;20033;-82
2023/08/12 01:52:00;;;;;;;2.80;1.50;;;;;;;19.28;100.00;95125.66;5056549;28;20068;-82
2023/08/12 01:54:26;;;;;;;2.03;1.33;;;;;;;19.04;100.00;95124.91;5057128;28;20121;-82
2023/08/12 01:56:51;;;;;;;2.15;1.50;;;;;;;19.24;100.00;95120.19;5040517;28;20414;-83
2023/08/12 01:59:17;;;;;;;2.78;1.40;;;;;;;18.87;100.00;95122.91;5057866;28;20114;-82
2023/08/12 02:01:42;;;;;;;1.63;1.27;;;;;;;18.76;100.00;95116.25;5056938;28;20051;-82
2023/08/12 02:04:07;;;;;;;2.75;1.60;;;;;;;18.64;100.00;95116.78;5058357;28;20363;-83
2023/08/12 02:06:33;;;;;;;4.80;1.67;;;;;;;18.67;100.00;95118.84;5058232;28;20115;-82
2023/08/12 02:08:58;;;;;;;4.47;1.70;;;;;;;18.80;100.00;95119.88;5056806;28;20036;-82
2023/08/12 02:11:23;;;;;;;2.42;1.67;;;;;;;18.65;100.00;95116.47;5057094;28;20628;-82
2023/08/12 02:13:49;;;;;;;4.82;1.50;;;;;;;18.78;100.00;95114.84;5056682;28;20093;-82
2023/08/12 02:16:14;;;;;;;2.30;1.55;;;;;;;18.57;100.00;95117.19;5056764;28;20051;-83
2023/08/12 02:18:40;;;;;;;2.80;1.70;;;;;;;18.73;100.00;95117.63;5057843;28;20488;-82
2023/08/12 02:21:05;;;;;;;4.35;1.65;;;;;;;18.73;100.00;95117.63;5056862;28;20039;-82
2023/08/12 02:23:31;;;;;;;4.85;2.10;;;;;;;18.61;100.00;95112.06;5056667;28;20639;-82
2023/08/12 02:25:57;;;;;;;5.18;1.80;;;;;;;18.44;100.00;95110.84;5057885;28;20430;-82
2023/08/12 02:28:22;;;;;;;4.57;1.92;;;;;;;18.35;100.00;95112.63;5057504;28;20480;-82
2023/08/12 02:30:48;;;;;;;1.83;1.40;;;;;;;18.30;100.00;95112.75;5056487;28;20064;-82
2023/08/12 02:33:13;;;;;;;5.07;1.73;;;;;;;18.36;100.00;95111.53;5056475;28;20460;-82
2023/08/12 02:35:39;;;;;;;4.60;1.80;;;;;;;18.30;100.00;95113.53;5057729;28;20043;-83
2023/08/12 02:38:04;;;;;;;4.63;1.67;;;;;;;18.38;100.00;95112.06;5055854;28;20091;-82
2023/08/12 02:40:30;;;;;;;6.50;1.83;;;;;;;18.14;100.00;95107.75;5056518;28;20107;-82
2023/08/12 02:42:55;;;;;;;3.00;2.08;;;;;;;18.22;100.00;95109.72;5057548;28;20051;-82
2023/08/12 02:45:20;;;;;;;7.97;1.65;;;;;;;18.27;100.00;95108.81;5057541;28;20037;-82
2023/08/12 02:47:46;;;;;;;4.07;1.50;;;;;;;18.35;100.00;95107.31;5058452;28;20033;-83
2023/08/12 02:50:11;;;;;;;2.47;1.65;;;;;;;18.39;100.00;95110.97;5058332;28;20330;-83
2023/08/12 02:52:37;;;;;;;5.03;1.80;;;;;;;18.31;100.00;95106.34;5057820;28;20031;-83
2023/08/12 02:55:02;;;;;;;3.65;1.98;;;;;;;18.12;100.00;95109.94;5059495;28;20120;-83
2023/08/12 02:57:28;;;;;;;4.03;1.92;;;;;;;17.93;100.00;95102.06;5059362;28;20060;-82
2023/08/12 02:59:53;;;;;;;3.75;2.28;;;;;;;18.00;100.00;95106.97;5059322;28;20029;-83
2023/08/12 03:02:18;;;;;;;5.28;2.42;;;;;;;18.09;100.00;95106.00;5058405;28;20353;-82
2023/08/12 03:04:44;;;;;;;2.53;1.80;;;;;;;18.12;100.00;95101.97;5059051;28;20078;-82
2023/08/12 03:07:09;;;;;;;7.05;1.98;;;;;;;18.12;100.00;95106.47;5059167;28;20029;-82
2023/08/12 03:09:35;;;;;;;2.80;1.80;;;;;;;18.17;100.00;95099.22;5059223;28;20351;-82
2023/08/12 03:12:02;;;;;;;2.95;2.10;;;;;;;18.06;100.00;95103.94;5057743;28;20089;-82
2023/08/12 03:14:28;;;;;;;2.78;1.70;;;;;;;17.95;100.00;95098.03;5057351;28;20025;-82
2023/08/12 03:16:54;;;;;;;5.10;1.60;;;;;;;18.04;100.00;95102.66;5058647;28;20434;-82
2023/08/12 03:19:19;;;;;;;4.90;1.92;;;;;;;18.05;100.00;95101.56;5058000;28;20035;-82
2023/08/12 03:21:45;;;;;;;2.72;1.60;;;;;;;18.11;100.00;95095.09;5058794;28;20041;-82
2023/08/12 03:24:10;;;;;;;3.47;1.98;;;;;;;18.17;100.00;95093.91;5056764;28;20474;-82
2023/08/12 03:26:35;;;;;;;2.72;1.98;;;;;;;18.14;100.00;95099.81;5046194;28;20044;-82
2023/08/12 03:29:01;;;;;;;5.65;2.03;;;;;;;18.22;100.00;95098.31;5056987;28;20409;-82
2023/08/12 03:31:26;;;;;;;3.08;1.75;;;;;;;18.20;100.00;95095.97;5040979;28;20127;-82
2023/08/12 03:33:51;;;;;;;7.68;1.95;;;;;;;18.12;100.00;95106.47;5058822;28;20338;-82
2023/08/12 03:36:17;;;;;;;4.03;2.45;;;;;;;18.21;100.00;95108.13;5058727;28;20119;-82
2023/08/12 03:38:42;;;;;;;3.80;1.80;;;;;;;18.28;100.00;95104.31;5059007;28;20032;-82
2023/08/12 03:41:08;;;;;;;5.13;2.25;;;;;;;18.12;100.00;95101.19;5057189;28;20124;-82
2023/08/12 03:43:33;;;;;;;5.43;1.85;;;;;;;18.18;100.00;95103.44;5058661;28;20438;-82
2023/08/12 03:45:59;;;;;;;6.07;2.05;;;;;;;18.32;100.00;95108.72;5057735;28;20028;-82
2023/08/12 03:48:24;;;;;;;3.70;1.85;;;;;;;18.44;100.00;95110.84;5058317;28;20032;-82
2023/08/12 03:50:49;;;;;;;3.78;1.90;;;;;;;18.63;100.00;95107.25;5058366;28;20032;-82
2023/08/12 03:53:15;;;;;;;2.78;1.75;;;;;;;18.69;100.00;95111.38;5057129;28;20128;-82
2023/08/12 03:55:41;;;;;;;5.30;1.90;;;;;;;18.85;100.00;95105.69;5057135;28;20043;-82
2023/08/12 03:58:06;;;;;;;3.40;2.10;;;;;;;18.80;100.00;95103.94;5055876;28;20036;-82
2023/08/12 04:00:32;;;;;;;2.83;2.05;;;;;;;18.87;100.00;95103.53;5056932;28;20036;-82
2023/08/12 04:02:57;;;;;;;3.38;2.15;;;;;;;18.78;100.00;95106.88;5058027;28;20476;-82
2023/08/12 04:05:23;;;;;;;4.68;2.10;;;;;;;18.70;100.00;95097.00;5058179;28;20036;-82
2023/08/12 04:07:48;;;;;;;3.40;1.92;;;;;;;18.68;100.00;95101.03;5056669;28;20033;-82
2023/08/12 04:10:13;;;;;;;4.90;2.10;;;;;;;18.68;100.00;95099.19;5056349;28;20124;-82
2023/08/12 04:12:41;;;;;;;5.10;1.83;;;;;;;18.73;100.00;95104.38;5056868;28;20039;-82
2023/08/12 04:15:07;;;;;;;4.00;1.88;;;;;;;18.53;100.00;95099.53;5056503;28;20028;-82
2023/08/12 04:17:32;;;;;;;7.03;2.20;;;;;;;18.14;100.00;95099.00;5057453;28;20036;-82
2023/08/12 04:19:58;;;;;;;6.60;2.60;;;;;;;18.07;100.00;95094.09;5039995;28;20029;-82
2023/08/12 04:22:23;;;;;;;8.50;2.40;;;;;;;18.26;100.00;95099.28;5057376;28;20104;-82
2023/08/12 04:24:49;;;;;;;3.83;2.40;;;;;;;18.28;100.00;95101.66;5057675;28;20087;-82
2023/08/12 04:27:16;;;;;;;5.00;2.40;;;;;;;18.19;100.00;95097.03;5055940;28;20044;-82
2023/08/12 04:29:41;;;;;;;4.22;2.15;;;;;;;18.04;100.00;95098.16;5056461;28;20116;-82
2023/08/12 04:32:07;;;;;;;6.68;2.08;;;;;;;17.91;100.00;95093.63;5056460;28;20108;-82
2023/08/12 04:34:32;;;;;;;3.70;2.17;;;;;;;17.81;100.00;95097.25;5056370;28;20060;-82
2023/08/12 04:36:58;;;;;;;3.92;2.03;;;;;;;17.81;100.00;95094.63;5056189;28;20060;-82
2023/08/12 04:39:23;;;;;;;4.85;2.17;;;;;;;17.95;100.00;95099.91;5056056;28;20421;-82
2023/08/12 04:41:48;;;;;;;4.75;2.20;;;;;;;18.16;100.00;95102.94;5057514;28;20037;-82
2023/08/12 04:44:14;;;;;;;3.17;2.13;;;;;;;17.98;100.00;95093.22;5057416;28;20105;-82
2023/08/12 04:46:39;;;;;;;4.55;2.33;;;;;;;17.93;100.00;95096.75;5057459;28;20040;-82
2023/08/12 04:49:05;;;;;;;7.75;2.20;;;;;;;17.89;100.00;95096.56;5055647;28;20338;-82
2023/08/12 04:51:30;;;;;;;8.55;2.30;;;;;;;17.99;100.00;95102.75;5056206;28;20404;-82
2023/08/12 04:53:56;;;;;;;5.38;2.33;;;;;;;18.29;100.00;95101.38;5056046;28;20043;-82
2023/08/12 04:56:21;;;;;;;2.70;2.13;;;;;;;18.50;100.00;95101.69;5056040;28;20163;-82
2023/08/12 04:58:47;;;;;;;3.47;1.98;;;;;;;18.19;100.00;95097.03;5055724;28;20032;-82
2023/08/12 05:01:12;;;;;;;4.95;2.00;;;;;;;18.27;100.00;95100.09;5056895;28;20025;-82
2023/08/12 05:03:37;;;;;;;6.18;2.20;;;;;;;18.50;100.00;95093.72;5055595;28;20179;-82
2023/08/12 05:06:03;;;;;;;2.50;1.83;;;;;;;18.53;100.00;95094.22;5055507;28;20032;-82
2023/08/12 05:08:28;;;;;;;4.47;2.22;;;;;;;18.74;100.00;95099.84;5056877;28;20039;-82
2023/08/12 05:10:54;;;;;;;3.88;1.90;;;;;;;18.86;100.00;95096.66;5055802;28;20033;-82
2023/08/12 05:13:20;;;;;;;3.78;2.20;;;;;;;19.01;100.00;95093.66;5056888;28;20442;-82
2023/08/12 05:15:47;;;;;;;7.20;2.30;;;;;;;19.12;100.00;95091.53;5056897;28;20037;-83
2023/08/12 05:18:12;;;;;;;5.15;2.10;;;;;;;19.17;100.00;95099.38;5055315;28;20061;-83
2023/08/12 05:20:42;;;;;;;3.95;2.22;;;;;;;19.09;100.00;95092.13;5055460;28;20441;-83
2023/08/12 05:23:08;;;;;;;5.47;2.53;;;;;;;19.12;100.00;95088.88;5056756;28;20037;-82
2023/08/12 05:25:33;;;;;;;3.92;2.22;;;;;;;19.08;100.00;95090.56;5056374;28;20029;-83
2023/08/12 05:27:59;;;;;;;5.57;2.45;;;;;;;19.38;100.00;95085.56;5056571;28;20149;-83
2023/08/12 05:30:24;;;;;;;2.95;1.85;;;;;;;19.58;100.00;95086.09;5056844;28;20037;-83
2023/08/12 05:32:49;;;;;;;3.20;2.28;;;;;;;19.67;100.00;95094.13;5055540;28;20029;-83
2023/08/12 05:35:15;;;;;;;2.70;1.95;;;;;;;19.77;100.00;95088.53;5056114;28;20438;-83
2023/08/12 05:37:40;;;;;;;2.65;2.03;;;;;;;19.87;100.00;95088.25;5055242;28;20044;-83
2023/08/12 05:40:08;;;;;;;3.85;1.98;;;;;;;19.97;100.00;95089.84;5056422;28;20114;-83
2023/08/12 05:42:34;;;;;;;6.97;2.15;;;;;;;20.02;100.00;95089.72;5055065;28;20358;-83
2023/08/12 05:45:00;;;;;;;3.80;1.90;;;;;;;20.09;100.00;95089.28;5055095;28;20112;-83
2023/08/12 05:47:25;;;;;;;4.82;1.95;;;;;;;20.19;100.00;95094.28;5054078;28;20111;-83
2023/08/12 05:49:50;;;;;;;2.85;1.85;;;;;;;20.30;100.00;95088.66;5043405;28;20033;-83
2023/08/12 05:52:16;;;;;;;3.30;2.05;;;;;;;20.41;100.00;95087.28;5066380;28;20029;-84
2023/08/12 05:54:41;;;;;;;4.00;1.92;;;;;;;19.95;100.00;95083.31;5038941;28;20025;-84
2023/08/12 05:57:07;;;;;;;4.88;2.30;;;;;;;20.28;100.00;95088.19;5055208;28;20036;-84
2023/08/12 05:59:32;;;;;;;3.10;2.15;;;;;;;20.21;100.00;95080.69;5038866;28;20029;-84
2023/08/12 06:01:57;;;;;;;2.92;1.70;;;;;;;20.20;100.00;95077.22;5055432;28;20028;-84
2023/08/12 06:04:23;;;;;;;2.58;1.90;;;;;;;20.67;100.00;95086.50;5038280;28;20040;-85
2023/08/12 06:06:48;;;;;;;2.80;1.80;;;;;;;20.99;100.00;95084.44;5056255;28;20052;-84
2023/08/12 06:09:14;;;;;;;4.53;2.05;;;;;;;21.11;100.00;95078.47;5054895;28;20033;-84
2023/08/12 06:11:39;;;;;;;4.35;2.20;;;;;;;20.81;100.00;95081.03;5038941;28;20074;-84
2023/08/12 06:14:04;;;;;;;2.92;1.70;;;;;;;20.92;100.00;95083.38;5054230;28;20067;-84
2023/08/12 06:16:30;;;;;;;2.70;1.67;;;;;;;20.81;100.00;95083.69;5062070;28;20038;-84
2023/08/12 06:18:55;;;;;;;3.00;1.70;;;;;;;21.13;100.00;95075.50;5048079;28;20389;-84
2023/08/12 06:21:21;;;;;;;2.25;1.85;;;;;;;21.31;100.00;95085.00;5054346;28;20040;-84
2023/08/12 06:23:46;;;;;;;6.68;2.00;;;;;;;21.44;100.00;95085.13;5034867;28;20025;-84
2023/08/12 06:26:11;;;;;;;8.38;2.15;;;;;;;21.35;100.00;95077.16;5037116;28;20029;-84
2023/08/12 06:28:37;;;;;;;5.43;2.03;;;;;;;21.49;100.00;95073.50;5054645;28;20024;-84
2023/08/12 06:31:02;;;;;;;3.33;1.75;;;;;;;21.50;100.00;95083.06;5054668;28;20033;-83
2023/08/12 06:33:28;;;;;;;2.65;1.65;;;;;;;21.55;100.00;95083.66;5054094;28;20484;-84
2023/08/12 06:35:53;;;;;;;2.13;1.60;;;;;;;21.67;100.00;95080.34;5054185;28;20029;-84
2023/08/12 06:38:19;;;;;;;3.45;1.95;;;;;;;21.69;100.00;95082.69;5039930;28;20021;-83
2023/08/12 06:40:44;;;;;;;3.72;2.08;;;;;;;21.41;100.00;95078.53;5058365;28;20477;-83
2023/08/12 06:43:10;;;;;;;3.00;1.83;;;;;;;21.71;100.00;95077.81;5053088;28;20087;-83
2023/08/12 06:45:35;;;;;;;4.55;1.77;;;;;;;21.96;100.00;95084.13;5052345;28;20056;-84
2023/08/12 06:48:04;;;;;;;2.63;1.83;;;;;;;22.01;100.00;95078.59;5057677;28;20029;-83
2023/08/12 06:50:30;;;;;;;1.60;1.50;;;;;;;22.27;100.00;95079.56;5058320;28;20442;-83
2023/08/12 06:52:55;;;;;;;2.95;1.90;;;;;;;21.99;100.00;95077.38;5058420;28;20029;-83
2023/08/12 06:55:21;;;;;;;3.75;2.05;;;;;;;21.97;100.00;95079.59;5041596;28;20032;-83
2023/08/12 06:57:46;;;;;;;5.78;1.85;;;;;;;22.22;100.00;95074.38;5059295;28;20032;-83
2023/08/12 07:00:12;;;;;;;8.43;1.92;;;;;;;22.09;100.00;95074.31;5057862;28;20064;-83
2023/08/12 07:02:40;;;;;;;7.18;2.25;;;;;;;22.28;100.00;95070.44;5057816;28;20345;-83
2023/08/12 07:05:05;;;;;;;4.90;1.88;;;;;;;22.62;100.00;95076.63;5059316;28;20438;-83
2023/08/12 07:07:31;;;;;;;2.95;1.95;;;;;;;22.61;100.00;95075.06;5057684;28;20028;-83
2023/08/12 07:09:56;;;;;;;7.28;2.00;;;;;;;22.81;100.00;95076.16;5059190;28;20107;-83
2023/08/12 07:12:21;;;;;;;2.35;1.60;;;;;;;22.56;100.00;95077.94;5057852;28;20021;-83
2023/08/12 07:14:47;;;;;;;5.07;1.70;;;;;;;22.49;100.00;95081.16;5059109;28;20039;-83
2023/08/12 07:17:12;;;;;;;2.13;1.77;;;;;;;22.52;100.00;95071.69;5057448;28;20111;-83
2023/08/12 07:19:38;;;;;;;2.72;2.00;;;;;;;22.78;100.00;95081.38;5057746;28;20036;-83
2023/08/12 07:22:03;;;;;;;4.57;1.70;;;;;;;22.91;100.00;95072.28;5057731;28;20461;-83
2023/08/12 07:24:29;;;;;;;2.08;1.70;;;;;;;23.17;100.00;95079.28;5058993;28;20079;-83
2023/08/12 07:26:54;;;;;;;2.42;1.52;;;;;;;23.29;100.00;95084.69;5057787;28;20346;-82
2023/08/12 07:29:19;;;;;;;4.20;2.22;;;;;;;23.29;100.00;95087.34;5057205;28;20028;-83
2023/08/12 07:31:45;;;;;;;2.78;1.67;;;;;;;23.56;100.00;95087.03;5058819;28;20032;-83
2023/08/12 07:34:12;;;;;;;3.15;2.20;;;;;;;23.42;100.00;95084.69;5057543;28;20037;-82
2023/08/12 07:36:39;;;;;;;4.18;1.73;;;;;;;23.51;100.00;95076.56;5041151;28;20063;-83
2023/08/12 07:39:04;;;;;;;4.22;1.75;;;;;;;23.45;100.00;95081.34;5057201;28;20021;-83
2023/08/12 07:41:29;;;;;;;2.67;1.10;;;;;;;23.62;100.00;95082.25;5057045;28;20342;-83
2023/08/12 07:43:55;;;;;;;3.33;1.50;;;;;;;23.88;100.00;95076.56;5057285;28;20031;-83
2023/08/12 07:46:20;;;;;;;3.88;1.58;;;;;;;23.64;100.00;95080.03;5057210;28;20036;-82
2023/08/12 07:48:46;;;;;;;3.13;1.58;;;;;;;23.92;100.00;95082.84;5057985;28;20056;-82
2023/08/12 07:51:11;;;;;;;2.33;1.45;;;;;;;24.16;100.00;95078.56;5058475;28;20044;-82
2023/08/12 07:53:36;;;;;;;3.90;1.60;;;;;;;24.20;100.00;95087.50;5058382;28;20108;-82
2023/08/12 07:56:03;;;;;;;3.17;1.77;;;;;;;24.47;100.00;95082.56;5058221;28;20024;-82
2023/08/12 07:58:28;;;;;;;3.38;1.48;;;;;;;24.60;100.00;95083.28;5056885;28;20411;-82
2023/08/12 08:00:54;;;;;;;3.28;1.73;;;;;;;24.60;100.00;95088.63;5057038;28;20029;-82
2023/08/12 08:03:19;;;;;;;1.73;1.30;;;;;;;24.86;100.00;95087.47;5058176;28;20087;-82
2023/08/12 08:05:46;;;;;;;5.18;1.98;;;;;;;24.90;100.00;95088.34;5056754;28;20075;-82
2023/08/12 08:08:12;;;;;;;3.45;1.77;;;;;;;24.96;100.00;95084.31;5056862;28;20025;-83
2023/08/12 08:10:38;;;;;;;3.95;1.90;;;;;;;24.92;100.00;95088.00;5056628;28;20346;-82
2023/08/12 08:13:03;;;;;;;6.00;1.67;;;;;;;24.95;100.00;95088.06;5057968;28;20025;-83
2023/08/12 08:15:29;;;;;;;4.68;1.90;;;;;;;25.06;100.00;95083.03;5057642;28;20430;-83
2023/08/12 08:17:54;;;;;;;2.90;2.08;;;;;;;24.50;100.00;95086.44;5056154;28;20033;-83
2023/08/12 08:20:20;;;;;;;3.85;1.77;;;;;;;24.66;100.00;95081.16;5057878;28;20331;-82
2023/08/12 08:22:47;;;;;;;7.85;2.40;;;;;;;24.67;100.00;95082.69;5057832;28;20115;-82
2023/08/12 08:25:12;;;;;;;4.72;1.90;;;;;;;25.06;100.00;95084.91;5057487;28;20021;-82
2023/08/12 08:27:38;;;;;;;6.00;2.28;;;;;;;25.12;100.00;95086.22;5057458;28;20469;-82
2023/08/12 08:30:04;;;;;;;4.40;2.03;;;;;;;25.22;100.00;95085.72;5057486;28;20054;-82
2023/08/12 08:32:30;;;;;;;4.90;2.00;;;;;;;25.09;100.00;95085.00;5057382;28;20028;-82
2023/08/12 08:34:55;;;;;;;4.30;2.20;;;;;;;25.43;100.00;95087.38;5056398;28;20033;-82
2023/08/12 08:37:21;;;;;;;8.07;2.40;;;;;;;25.48;100.00;95092.50;5056100;28;20025;-82
2023/08/12 08:39:46;;;;;;;3.33;2.35;;;;;;;25.22;100.00;95091.06;5057401;28;20343;-82
2023/08/12 08:42:12;;;;;;;7.55;3.78;;;;;;;25.13;100.00;95085.88;5057449;28;20039;-82
2023/08/12 08:44:41;;;;;;;5.32;2.85;;;;;;;25.28;100.00;95094.28;5056202;28;20029;-82
2023/08/12 08:47:07;;;;;;;4.13;2.10;;;;;;;25.30;100.00;95089.34;5055957;28;20033;-82
2023/08/12 08:49:33;;;;;;;9.27;2.08;;;;;;;25.22;100.00;95087.63;5055758;28;20028;-82
2023/08/12 08:51:59;;;;;;;5.28;2.10;;;;;;;25.48;100.00;95087.16;5056127;28;20082;-82
2023/08/12 08:54:24;;;;;;;4.30;2.03;;;;;;;25.29;100.00;95087.78;5057140;28;20033;-82
2023/08/12 08:56:50;;;;;;;6.45;2.13;;;;;;;25.39;100.00;95089.97;5056988;28;20115;-81
2023/08/12 08:59:15;;;;;;;6.13;2.20;;;;;;;25.65;100.00;95090.59;5055518;28;20457;-81
2023/08/12 09:01:41;;;;;;;8.23;1.70;;;;;;;25.62;100.00;95086.72;5038660;28;20028;-82
2023/08/12 09:04:07;;;;;;;6.43;1.98;;;;;;;25.46;100.00;95084.00;5055973;28;20131;-82
2023/08/12 09:06:34;;;;;;;5.10;2.20;;;;;;;25.78;100.00;95089.38;5057112;28;20502;-81
2023/08/12 09:09:00;;;;;;;3.88;2.13;;;;;;;25.61;100.00;95087.06;5055696;28;20115;-82
2023/08/12 09:11:25;;;;;;;3.53;1.98;;;;;;;25.85;100.00;95088.78;5055616;28;20111;-82
2023/08/12 09:13:52;;;;;;;4.13;2.10;;;;;;;26.05;100.00;95089.63;5055754;28;20039;-82
2023/08/12 09:16:18;;;;;;;5.60;2.30;;;;;;;25.98;100.00;95086.78;5055779;28;20040;-82
2023/08/12 09:18:46;;;;;;;4.47;2.00;;;;;;;26.09;100.00;95095.84;5056777;28;20036;-82
2023/08/12 09:21:12;;;;;;;3.42;1.92;;;;;;;26.14;100.00;95097.47;5055409;28;20025;-81
2023/08/12 09:23:38;;;;;;;6.32;2.40;;;;;;;26.18;100.00;95097.59;5056871;28;20461;-82
2023/08/12 09:26:15;;;;;;;3.92;2.20;;;;;;;26.15;100.00;95090.22;5054596;28;20040;-82
2023/08/12 09:28:41;;;;;;;5.93;2.65;;;;;;;26.21;100.00;95097.69;5056475;28;20132;-82
2023/08/12 09:31:09;;;;;;;8.85;2.70;;;;;;;26.05;100.00;95094.97;5057112;28;20053;-82
2023/08/12 09:33:39;;;;;;;4.00;2.45;;;;;;;25.99;100.00;95101.75;5056753;28;20060;-82
2023/08/12 09:36:04;;;;;;;6.22;3.13;;;;;;;26.08;100.00;95096.97;5055590;28;20091;-82
2023/08/12 09:38:30;;;;;;;8.45;2.80;;;;;;;26.10;100.00;95092.03;5056541;28;20426;-82
2023/08/12 09:40:56;;;;;;;6.28;2.67;;;;;;;26.02;100.00;95089.53;5055145;28;20037;-82
2023/08/12 09:43:27;;;;;;;4.88;2.53;;;;;;;26.52;100.00;95092.53;5056619;28;20029;-82
2023/08/12 09:45:57;;;;;;;7.20;2.38;;;;;;;26.53;100.00;95100.25;5055143;28;20086;-82
2023/08/12 09:48:22;;;;;;;6.43;2.88;;;;;;;26.23;100.00;95091.94;5055396;28;20029;-82
2023/08/12 09:50:49;;;;;;;6.25;2.83;;;;;;;26.53;100.00;95094.09;5056650;28;20032;-82
2023/08/12 09:53:15;;;;;;;5.20;2.80;;;;;;;26.88;100.00;95089.81;5055371;28;20033;-82
2023/08/12 09:55:41;;;;;;;6.05;2.53;;;;;;;26.77;100.00;95092.28;5055599;28;20091;-82
2023/08/12 09:58:09;;;;;;;10.20;2.80;;;;;;;26.63;100.00;95093.53;5055190;28;20430;-82
2023/08/12 10:00:35;;;;;;;4.18;2.33;;;;;;;26.36;100.00;95092.63;5055018;28;20029;-82
2023/08/12 10:03:02;;;;;;;5.72;2.65;;;;;;;26.70;100.00;95092.16;5055240;28;20123;-82
2023/08/12 10:05:28;;;;;;;6.97;2.83;;;;;;;26.44;100.00;95088.94;5055336;28;20037;-82
2023/08/12 10:07:54;;;;;;;6.63;3.25;;;;;;;26.31;100.00;95088.28;5055179;28;20350;-82
2023/08/12 10:10:22;;;;;;;5.45;2.95;;;;;;;26.67;100.00;95080.19;5054860;28;20419;-83
2023/08/12 10:12:48;;;;;;;6.80;2.95;;;;;;;26.79;100.00;95092.69;5041196;28;20028;-83
2023/08/12 10:15:13;;;;;;;5.63;2.63;;;;;;;27.09;100.00;95086.75;5059149;28;20350;-82
2023/08/12 10:17:41;;;;;;;4.85;3.03;;;;;;;26.99;100.00;95088.09;5059021;28;20126;-82
2023/08/12 10:20:08;;;;;;;6.60;2.85;;;;;;;27.19;100.00;95088.84;5058967;28;20036;-82
2023/08/12 10:22:35;;;;;;;5.90;2.80;;;;;;;27.20;100.00;95082.34;5058934;28;20037;-82
2023/08/12 10:25:02;;;;;;;11.30;3.28;;;;;;;26.94;100.00;95080.34;5058887;28;20037;-82
2023/08/12 10:27:28;;;;;;;8.13;2.90;;;;;;;26.74;100.00;95072.25;5059583;28;20029;-82
2023/08/12 10:29:56;;;;;;;6.20;3.00;;;;;;;27.18;100.00;95076.53;5058865;28;20052;-83
2023/08/12 10:32:21;;;;;;;18.63;3.10;;;;;;;26.99;100.00;95071.97;5058480;28;20033;-82
2023/08/12 10:34:54;;;;;;;12.57;3.95;;;;;;;26.84;100.00;95075.50;5058791;28;20036;-82
2023/08/12 10:37:19;;;;;;;3.75;3.05;;;;;;;26.63;100.00;95073.97;5058510;28;20032;-82
2023/08/12 10:39:45;;;;;;;7.18;3.55;;;;;;;26.45;100.00;95073.59;5041826;28;20029;-82
2023/08/12 10:42:10;;;;;;;5.05;3.10;;;;;;;26.92;100.00;95067.25;5058394;28;20032;-82
2023/08/12 10:44:43;;;;;;;7.93;3.30;;;;;;;26.59;100.00;95065.84;5059703;28;20029;-82
2023/08/12 10:47:10;;;;;;;10.43;3.33;;;;;;;26.44;100.00;95066.69;5058288;28;20086;-82
2023/08/12 10:49:42;;;;;;;5.68;3.55;;;;;;;27.02;100.00;95060.50;5058525;28;20490;-83
2023/08/12 10:52:39;;;;;;;6.00;3.40;;;;;;;27.40;100.00;95063.44;5058354;28;20032;-82
2023/08/12 10:55:17;;;;;;;4.22;3.10;;;;;;;27.01;100.00;95058.19;5059281;28;20071;-83
2023/08/12 10:57:43;;;;;;;7.47;3.30;;;;;;;27.18;100.00;95055.03;5059075;28;20025;-83
2023/08/12 11:00:17;;;;;;;7.18;3.00;;;;;;;26.96;100.00;95051.94;5041019;28;20458;-83
2023/08/12 11:02:46;;;;;;;5.35;3.20;;;;;;;26.97;100.00;95052.75;5058281;28;20094;-82
2023/08/12 11:05:12;;;;;;;4.40;2.63;;;;;;;27.03;100.00;95054.00;5059116;28;20029;-82
2023/08/12 11:07:52;;;;;;;7.68;3.72;;;;;;;26.89;100.00;95046.47;5057734;28;20397;-82
2023/08/12 11:10:26;;;;;;;7.82;3.35;;;;;;;26.98;100.00;95054.28;5059361;28;20033;-82
2023/08/12 11:12:51;;;;;;;7.18;3.10;;;;;;;26.93;100.00;95052.66;5057878;28;20453;-83
2023/08/12 11:15:17;;;;;;;5.13;3.13;;;;;;;27.22;100.00;95045.09;5059169;28;20033;-83
2023/08/12 11:17:45;;;;;;;6.78;3.30;;;;;;;27.17;100.00;95050.78;5057491;28;20118;-83
2023/08/12 11:20:12;;;;;;;5.95;3.50;;;;;;;26.95;100.00;95034.25;5057569;28;20033;-83